sensor_id;sensor_type;location;lat;lon;timestamp;P1;durP1;ratioP1;P2;durP2;ratioP2
6374;SDS011;35400;45.472;-122.822;2023-04-30T00:02:17;1.83;;;1.30;;
6374;SDS011;35400;45.472;-122.822;2023-04-30T00:04:44;2.78;;;1.50;;
6374;SDS011;35400;45.472;-122.822;2023-04-30T00:07:11;1.38;;;1.10;;
6374;SDS011;35400;45.472;-122.822;2023-04-30T00:09:37;4.38;;;1.50;;
6374;SDS011;35400;45.472;-122.822;2023-04-30T00:12:04;5.10;;;1.40;;
6374;SDS011;35400;45.472;-122.822;2023-04-30T00:14:31;2.83;;;1.52;;
6374;SDS011;35400;45.472;-122.822;2023-04-30T00:16:58;4.10;;;1.92;;
6374;SDS011;35400;45.472;-122.822;2023-04-30T00:19:25;2.60;;;1.38;;
6374;SDS011;35400;45.472;-122.822;2023-04-30T00:21:52;1.58;;;1.48;;
6374;SDS011;35400;45.472;-122.822;2023-04-30T00:24:19;3.63;;;1.38;;
6374;SDS011;35400;45.472;-122.822;2023-04-30T00:26:46;2.90;;;1.60;;
6374;SDS011;35400;45.472;-122.822;2023-04-30T00:29:12;3.88;;;1.48;;
6374;SDS011;35400;45.472;-122.822;2023-04-30T00:31:39;1.50;;;1.20;;
6374;SDS011;35400;45.472;-122.822;2023-04-30T00:34:06;3.28;;;1.40;;
6374;SDS011;35400;45.472;-122.822;2023-04-30T00:36:33;2.78;;;1.50;;
6374;SDS011;35400;45.472;-122.822;2023-04-30T00:39:00;5.30;;;1.95;;
6374;SDS011;35400;45.472;-122.822;2023-04-30T00:41:27;2.38;;;1.42;;
6374;SDS011;35400;45.472;-122.822;2023-04-30T00:43:55;5.45;;;1.60;;
6374;SDS011;35400;45.472;-122.822;2023-04-30T00:46:22;6.60;;;1.52;;
6374;SDS011;35400;45.472;-122.822;2023-04-30T00:48:48;2.63;;;1.33;;
6374;SDS011;35400;45.472;-122.822;2023-04-30T00:51:16;1.80;;;1.27;;
6374;SDS011;35400;45.472;-122.822;2023-04-30T00:53:43;2.25;;;1.40;;
6374;SDS011;35400;45.472;-122.822;2023-04-30T00:56:10;2.38;;;1.65;;
6374;SDS011;35400;45.472;-122.822;2023-04-30T00:58:41;3.60;;;1.67;;
6374;SDS011;35400;45.472;-122.822;2023-04-30T01:01:08;5.53;;;2.00;;
6374;SDS011;35400;45.472;-122.822;2023-04-30T01:03:35;5.15;;;3.22;;
6374;SDS011;35400;45.472;-122.822;2023-04-30T01:06:02;5.10;;;2.85;;
6374;SDS011;35400;45.472;-122.822;2023-04-30T01:08:29;10.07;;;5.28;;
6374;SDS011;35400;45.472;-122.822;2023-04-30T01:11:06;11.43;;;5.25;;
6374;SDS011;35400;45.472;-122.822;2023-04-30T01:16:39;2.42;;;1.58;;
6374;SDS011;35400;45.472;-122.822;2023-04-30T01:19:34;4.63;;;1.88;;
6374;SDS011;35400;45.472;-122.822;2023-04-30T01:22:02;3.30;;;1.97;;
6374;SDS011;35400;45.472;-122.822;2023-04-30T01:24:48;2.55;;;1.40;;
6374;SDS011;35400;45.472;-122.822;2023-04-30T01:27:32;2.35;;;1.30;;
6374;SDS011;35400;45.472;-122.822;2023-04-30T01:30:26;4.10;;;1.17;;
6374;SDS011;35400;45.472;-122.822;2023-04-30T01:32:54;2.83;;;1.40;;
6374;SDS011;35400;45.472;-122.822;2023-04-30T01:35:22;4.53;;;1.30;;
6374;SDS011;35400;45.472;-122.822;2023-04-30T01:38:06;2.67;;;1.38;;
6374;SDS011;35400;45.472;-122.822;2023-04-30T01:41:00;2.78;;;1.40;;
6374;SDS011;35400;45.472;-122.822;2023-04-30T01:46:25;4.07;;;1.50;;
6374;SDS011;35400;45.472;-122.822;2023-04-30T01:51:38;1.55;;;1.17;;
6374;SDS011;35400;45.472;-122.822;2023-04-30T01:54:21;3.15;;;1.38;;
6374;SDS011;35400;45.472;-122.822;2023-04-30T01:59:37;1.75;;;1.30;;
6374;SDS011;35400;45.472;-122.822;2023-04-30T02:02:06;2.75;;;2.30;;
6374;SDS011;35400;45.472;-122.822;2023-04-30T02:04:32;2.92;;;1.58;;
6374;SDS011;35400;45.472;-122.822;2023-04-30T02:06:59;4.15;;;1.50;;
6374;SDS011;35400;45.472;-122.822;2023-04-30T02:09:26;2.33;;;1.40;;
6374;SDS011;35400;45.472;-122.822;2023-04-30T02:11:53;3.00;;;1.60;;
6374;SDS011;35400;45.472;-122.822;2023-04-30T02:14:22;2.55;;;1.50;;
6374;SDS011;35400;45.472;-122.822;2023-04-30T02:16:51;1.30;;;1.20;;
6374;SDS011;35400;45.472;-122.822;2023-04-30T02:19:18;4.10;;;1.33;;
6374;SDS011;35400;45.472;-122.822;2023-04-30T02:21:45;1.48;;;1.30;;
6374;SDS011;35400;45.472;-122.822;2023-04-30T02:24:12;2.15;;;1.20;;
6374;SDS011;35400;45.472;-122.822;2023-04-30T02:26:39;3.25;;;1.27;;
6374;SDS011;35400;45.472;-122.822;2023-04-30T02:29:05;2.22;;;1.17;;
6374;SDS011;35400;45.472;-122.822;2023-04-30T02:31:32;2.88;;;1.00;;
6374;SDS011;35400;45.472;-122.822;2023-04-30T02:33:59;1.65;;;1.10;;
6374;SDS011;35400;45.472;-122.822;2023-04-30T02:36:26;2.38;;;1.10;;
6374;SDS011;35400;45.472;-122.822;2023-04-30T02:38:53;2.28;;;1.13;;
6374;SDS011;35400;45.472;-122.822;2023-04-30T02:41:20;1.13;;;0.90;;
6374;SDS011;35400;45.472;-122.822;2023-04-30T02:43:46;0.75;;;0.73;;
6374;SDS011;35400;45.472;-122.822;2023-04-30T02:46:13;1.20;;;1.10;;
6374;SDS011;35400;45.472;-122.822;2023-04-30T02:48:40;1.88;;;1.10;;
6374;SDS011;35400;45.472;-122.822;2023-04-30T02:51:07;1.88;;;0.90;;
6374;SDS011;35400;45.472;-122.822;2023-04-30T02:53:34;2.78;;;0.90;;
6374;SDS011;35400;45.472;-122.822;2023-04-30T02:56:01;1.10;;;1.00;;
6374;SDS011;35400;45.472;-122.822;2023-04-30T02:58:28;3.80;;;1.02;;
6374;SDS011;35400;45.472;-122.822;2023-04-30T03:00:55;2.40;;;1.33;;
6374;SDS011;35400;45.472;-122.822;2023-04-30T03:03:22;1.48;;;1.15;;
6374;SDS011;35400;45.472;-122.822;2023-04-30T03:05:49;1.33;;;1.02;;
6374;SDS011;35400;45.472;-122.822;2023-04-30T03:08:15;1.20;;;1.10;;
6374;SDS011;35400;45.472;-122.822;2023-04-30T03:10:42;2.70;;;1.45;;
6374;SDS011;35400;45.472;-122.822;2023-04-30T03:13:09;2.75;;;1.23;;
6374;SDS011;35400;45.472;-122.822;2023-04-30T03:15:36;1.42;;;1.33;;
6374;SDS011;35400;45.472;-122.822;2023-04-30T03:18:03;2.88;;;1.63;;
6374;SDS011;35400;45.472;-122.822;2023-04-30T03:20:30;3.35;;;1.63;;
6374;SDS011;35400;45.472;-122.822;2023-04-30T03:22:57;2.35;;;1.60;;
6374;SDS011;35400;45.472;-122.822;2023-04-30T03:25:24;2.58;;;1.98;;
6374;SDS011;35400;45.472;-122.822;2023-04-30T03:27:51;5.90;;;5.15;;
6374;SDS011;35400;45.472;-122.822;2023-04-30T03:30:18;2.70;;;1.52;;
6374;SDS011;35400;45.472;-122.822;2023-04-30T03:32:45;3.17;;;1.48;;
6374;SDS011;35400;45.472;-122.822;2023-04-30T03:35:12;2.03;;;1.48;;
6374;SDS011;35400;45.472;-122.822;2023-04-30T03:37:39;3.30;;;1.63;;
6374;SDS011;35400;45.472;-122.822;2023-04-30T03:40:06;4.13;;;1.60;;
6374;SDS011;35400;45.472;-122.822;2023-04-30T03:42:33;2.63;;;1.33;;
6374;SDS011;35400;45.472;-122.822;2023-04-30T03:45:00;1.50;;;1.25;;
6374;SDS011;35400;45.472;-122.822;2023-04-30T03:47:28;3.22;;;1.17;;
6374;SDS011;35400;45.472;-122.822;2023-04-30T03:49:55;2.92;;;1.42;;
6374;SDS011;35400;45.472;-122.822;2023-04-30T03:52:22;2.80;;;1.35;;
6374;SDS011;35400;45.472;-122.822;2023-04-30T03:54:49;3.05;;;1.27;;
6374;SDS011;35400;45.472;-122.822;2023-04-30T03:57:18;1.85;;;1.40;;
6374;SDS011;35400;45.472;-122.822;2023-04-30T03:59:45;2.65;;;1.60;;
6374;SDS011;35400;45.472;-122.822;2023-04-30T04:02:12;2.22;;;1.35;;
6374;SDS011;35400;45.472;-122.822;2023-04-30T04:04:39;2.13;;;1.40;;
6374;SDS011;35400;45.472;-122.822;2023-04-30T04:07:06;1.95;;;1.52;;
6374;SDS011;35400;45.472;-122.822;2023-04-30T04:09:34;1.73;;;1.40;;
6374;SDS011;35400;45.472;-122.822;2023-04-30T04:12:02;3.70;;;1.65;;
6374;SDS011;35400;45.472;-122.822;2023-04-30T04:14:30;3.50;;;1.60;;
6374;SDS011;35400;45.472;-122.822;2023-04-30T04:16:56;3.67;;;1.35;;
6374;SDS011;35400;45.472;-122.822;2023-04-30T04:19:25;2.58;;;1.42;;
6374;SDS011;35400;45.472;-122.822;2023-04-30T04:21:52;2.28;;;1.45;;
6374;SDS011;35400;45.472;-122.822;2023-04-30T04:24:20;2.67;;;1.30;;
6374;SDS011;35400;45.472;-122.822;2023-04-30T04:26:46;2.78;;;1.58;;
6374;SDS011;35400;45.472;-122.822;2023-04-30T04:29:13;2.30;;;1.70;;
6374;SDS011;35400;45.472;-122.822;2023-04-30T04:31:41;2.22;;;1.30;;
6374;SDS011;35400;45.472;-122.822;2023-04-30T04:34:09;2.50;;;1.70;;
6374;SDS011;35400;45.472;-122.822;2023-04-30T04:36:36;4.00;;;1.83;;
6374;SDS011;35400;45.472;-122.822;2023-04-30T04:39:03;3.85;;;2.10;;
6374;SDS011;35400;45.472;-122.822;2023-04-30T04:41:31;4.18;;;2.20;;
6374;SDS011;35400;45.472;-122.822;2023-04-30T04:43:59;3.95;;;1.90;;
6374;SDS011;35400;45.472;-122.822;2023-04-30T04:46:29;4.85;;;2.22;;
6374;SDS011;35400;45.472;-122.822;2023-04-30T04:48:57;3.30;;;2.10;;
6374;SDS011;35400;45.472;-122.822;2023-04-30T04:51:24;4.80;;;2.47;;
6374;SDS011;35400;45.472;-122.822;2023-04-30T04:53:51;4.75;;;3.00;;
6374;SDS011;35400;45.472;-122.822;2023-04-30T04:56:18;4.13;;;2.50;;
6374;SDS011;35400;45.472;-122.822;2023-04-30T04:58:45;2.47;;;1.58;;
6374;SDS011;35400;45.472;-122.822;2023-04-30T05:01:12;2.58;;;1.80;;
6374;SDS011;35400;45.472;-122.822;2023-04-30T05:03:40;2.45;;;2.22;;
6374;SDS011;35400;45.472;-122.822;2023-04-30T05:06:06;2.05;;;1.83;;
6374;SDS011;35400;45.472;-122.822;2023-04-30T05:08:33;2.07;;;1.83;;
6374;SDS011;35400;45.472;-122.822;2023-04-30T05:11:01;3.30;;;1.40;;
6374;SDS011;35400;45.472;-122.822;2023-04-30T05:13:28;3.10;;;1.55;;
6374;SDS011;35400;45.472;-122.822;2023-04-30T05:15:55;2.05;;;1.55;;
6374;SDS011;35400;45.472;-122.822;2023-04-30T05:18:23;3.07;;;1.50;;
6374;SDS011;35400;45.472;-122.822;2023-04-30T05:20:49;2.73;;;1.87;;
6374;SDS011;35400;45.472;-122.822;2023-04-30T05:23:16;2.08;;;1.83;;
6374;SDS011;35400;45.472;-122.822;2023-04-30T05:25:43;2.87;;;1.67;;
6374;SDS011;35400;45.472;-122.822;2023-04-30T05:28:10;4.30;;;1.80;;
6374;SDS011;35400;45.472;-122.822;2023-04-30T05:30:37;4.00;;;2.20;;
6374;SDS011;35400;45.472;-122.822;2023-04-30T05:33:04;4.00;;;2.15;;
6374;SDS011;35400;45.472;-122.822;2023-04-30T05:35:31;2.73;;;2.10;;
6374;SDS011;35400;45.472;-122.822;2023-04-30T05:38:01;5.00;;;2.97;;
6374;SDS011;35400;45.472;-122.822;2023-04-30T05:40:28;7.10;;;4.20;;
6374;SDS011;35400;45.472;-122.822;2023-04-30T05:42:55;7.17;;;4.70;;
6374;SDS011;35400;45.472;-122.822;2023-04-30T05:45:22;8.03;;;4.33;;
6374;SDS011;35400;45.472;-122.822;2023-04-30T05:47:49;7.00;;;3.13;;
6374;SDS011;35400;45.472;-122.822;2023-04-30T05:50:16;5.80;;;4.10;;
6374;SDS011;35400;45.472;-122.822;2023-04-30T05:52:43;7.23;;;5.50;;
6374;SDS011;35400;45.472;-122.822;2023-04-30T05:55:10;6.90;;;4.33;;
6374;SDS011;35400;45.472;-122.822;2023-04-30T05:57:37;3.80;;;2.73;;
6374;SDS011;35400;45.472;-122.822;2023-04-30T06:00:04;4.23;;;2.57;;
6374;SDS011;35400;45.472;-122.822;2023-04-30T06:02:37;5.53;;;2.03;;
6374;SDS011;35400;45.472;-122.822;2023-04-30T06:05:05;4.03;;;1.57;;
6374;SDS011;35400;45.472;-122.822;2023-04-30T06:07:33;2.87;;;1.67;;
6374;SDS011;35400;45.472;-122.822;2023-04-30T06:10:00;2.93;;;1.80;;
6374;SDS011;35400;45.472;-122.822;2023-04-30T06:12:27;2.80;;;1.87;;
6374;SDS011;35400;45.472;-122.822;2023-04-30T06:14:54;3.33;;;2.00;;
6374;SDS011;35400;45.472;-122.822;2023-04-30T06:17:22;3.10;;;1.87;;
6374;SDS011;35400;45.472;-122.822;2023-04-30T06:19:48;2.27;;;1.53;;
6374;SDS011;35400;45.472;-122.822;2023-04-30T06:22:15;5.70;;;2.03;;
6374;SDS011;35400;45.472;-122.822;2023-04-30T06:24:42;4.10;;;2.00;;
6374;SDS011;35400;45.472;-122.822;2023-04-30T06:27:10;3.33;;;1.73;;
6374;SDS011;35400;45.472;-122.822;2023-04-30T06:29:37;4.77;;;1.60;;
6374;SDS011;35400;45.472;-122.822;2023-04-30T06:32:04;2.77;;;1.90;;
6374;SDS011;35400;45.472;-122.822;2023-04-30T06:34:32;1.77;;;1.43;;
6374;SDS011;35400;45.472;-122.822;2023-04-30T06:36:59;1.40;;;1.30;;
6374;SDS011;35400;45.472;-122.822;2023-04-30T06:39:26;3.17;;;1.30;;
6374;SDS011;35400;45.472;-122.822;2023-04-30T06:41:52;2.10;;;1.30;;
6374;SDS011;35400;45.472;-122.822;2023-04-30T06:44:20;1.87;;;1.27;;
6374;SDS011;35400;45.472;-122.822;2023-04-30T06:46:47;1.10;;;1.00;;
6374;SDS011;35400;45.472;-122.822;2023-04-30T06:49:14;1.10;;;1.00;;
6374;SDS011;35400;45.472;-122.822;2023-04-30T06:51:41;1.53;;;1.10;;
6374;SDS011;35400;45.472;-122.822;2023-04-30T06:54:08;1.37;;;1.10;;
6374;SDS011;35400;45.472;-122.822;2023-04-30T06:56:35;1.10;;;1.00;;
6374;SDS011;35400;45.472;-122.822;2023-04-30T06:59:02;1.97;;;1.13;;
6374;SDS011;35400;45.472;-122.822;2023-04-30T07:01:29;3.20;;;1.23;;
6374;SDS011;35400;45.472;-122.822;2023-04-30T07:03:56;4.67;;;1.17;;
6374;SDS011;35400;45.472;-122.822;2023-04-30T07:06:23;1.73;;;1.17;;
6374;SDS011;35400;45.472;-122.822;2023-04-30T07:08:50;1.70;;;1.30;;
6374;SDS011;35400;45.472;-122.822;2023-04-30T07:11:17;3.80;;;1.50;;
6374;SDS011;35400;45.472;-122.822;2023-04-30T07:13:44;2.07;;;1.30;;
6374;SDS011;35400;45.472;-122.822;2023-04-30T07:16:11;1.93;;;1.33;;
6374;SDS011;35400;45.472;-122.822;2023-04-30T07:18:38;2.60;;;1.37;;
6374;SDS011;35400;45.472;-122.822;2023-04-30T07:21:05;1.33;;;1.03;;
6374;SDS011;35400;45.472;-122.822;2023-04-30T07:23:33;2.53;;;1.60;;
6374;SDS011;35400;45.472;-122.822;2023-04-30T07:26:00;1.43;;;1.20;;
6374;SDS011;35400;45.472;-122.822;2023-04-30T07:28:27;1.33;;;1.00;;
6374;SDS011;35400;45.472;-122.822;2023-04-30T07:30:54;1.50;;;0.97;;
6374;SDS011;35400;45.472;-122.822;2023-04-30T07:33:20;1.90;;;1.27;;
6374;SDS011;35400;45.472;-122.822;2023-04-30T07:35:47;1.53;;;1.00;;
6374;SDS011;35400;45.472;-122.822;2023-04-30T07:38:14;3.60;;;0.87;;
6374;SDS011;35400;45.472;-122.822;2023-04-30T07:40:43;1.97;;;0.80;;
6374;SDS011;35400;45.472;-122.822;2023-04-30T07:43:10;1.23;;;0.90;;
6374;SDS011;35400;45.472;-122.822;2023-04-30T07:45:37;1.50;;;0.97;;
6374;SDS011;35400;45.472;-122.822;2023-04-30T07:48:04;1.50;;;0.60;;
6374;SDS011;35400;45.472;-122.822;2023-04-30T07:50:31;1.63;;;0.70;;
6374;SDS011;35400;45.472;-122.822;2023-04-30T07:52:59;2.37;;;0.90;;
6374;SDS011;35400;45.472;-122.822;2023-04-30T07:55:27;3.07;;;0.83;;
6374;SDS011;35400;45.472;-122.822;2023-04-30T07:57:54;1.07;;;0.80;;
6374;SDS011;35400;45.472;-122.822;2023-04-30T08:00:20;1.97;;;1.10;;
6374;SDS011;35400;45.472;-122.822;2023-04-30T08:02:47;3.50;;;0.90;;
6374;SDS011;35400;45.472;-122.822;2023-04-30T08:05:14;1.07;;;0.97;;
6374;SDS011;35400;45.472;-122.822;2023-04-30T08:07:41;0.90;;;0.90;;
6374;SDS011;35400;45.472;-122.822;2023-04-30T08:10:09;4.20;;;1.13;;
6374;SDS011;35400;45.472;-122.822;2023-04-30T08:12:37;1.70;;;0.90;;
6374;SDS011;35400;45.472;-122.822;2023-04-30T08:15:07;2.10;;;0.90;;
6374;SDS011;35400;45.472;-122.822;2023-04-30T08:17:34;1.47;;;0.93;;
6374;SDS011;35400;45.472;-122.822;2023-04-30T08:20:04;1.00;;;0.90;;
6374;SDS011;35400;45.472;-122.822;2023-04-30T08:22:32;1.53;;;0.80;;
6374;SDS011;35400;45.472;-122.822;2023-04-30T08:24:59;1.27;;;0.90;;
6374;SDS011;35400;45.472;-122.822;2023-04-30T08:27:26;2.87;;;1.00;;
6374;SDS011;35400;45.472;-122.822;2023-04-30T08:29:55;1.33;;;0.90;;
6374;SDS011;35400;45.472;-122.822;2023-04-30T08:32:25;1.47;;;0.90;;
6374;SDS011;35400;45.472;-122.822;2023-04-30T08:34:52;0.80;;;0.63;;
6374;SDS011;35400;45.472;-122.822;2023-04-30T08:37:19;1.40;;;0.70;;
6374;SDS011;35400;45.472;-122.822;2023-04-30T08:39:46;1.63;;;0.77;;
6374;SDS011;35400;45.472;-122.822;2023-04-30T08:42:13;2.70;;;0.90;;
6374;SDS011;35400;45.472;-122.822;2023-04-30T08:44:42;1.87;;;1.00;;
6374;SDS011;35400;45.472;-122.822;2023-04-30T08:47:11;2.83;;;0.80;;
6374;SDS011;35400;45.472;-122.822;2023-04-30T08:49:39;2.73;;;1.00;;
6374;SDS011;35400;45.472;-122.822;2023-04-30T08:52:06;3.57;;;1.10;;
6374;SDS011;35400;45.472;-122.822;2023-04-30T08:54:36;1.53;;;0.80;;
6374;SDS011;35400;45.472;-122.822;2023-04-30T08:57:04;1.83;;;1.00;;
6374;SDS011;35400;45.472;-122.822;2023-04-30T08:59:31;3.33;;;1.10;;
6374;SDS011;35400;45.472;-122.822;2023-04-30T09:02:01;2.77;;;1.13;;
6374;SDS011;35400;45.472;-122.822;2023-04-30T09:04:27;1.50;;;0.80;;
6374;SDS011;35400;45.472;-122.822;2023-04-30T09:06:54;2.37;;;1.10;;
6374;SDS011;35400;45.472;-122.822;2023-04-30T09:09:28;1.40;;;1.07;;
6374;SDS011;35400;45.472;-122.822;2023-04-30T09:12:11;1.63;;;0.80;;
6374;SDS011;35400;45.472;-122.822;2023-04-30T09:17:33;0.67;;;0.67;;
6374;SDS011;35400;45.472;-122.822;2023-04-30T09:20:07;1.87;;;0.90;;
6374;SDS011;35400;45.472;-122.822;2023-04-30T09:22:39;1.97;;;1.20;;
6374;SDS011;35400;45.472;-122.822;2023-04-30T09:25:07;1.90;;;0.90;;
6374;SDS011;35400;45.472;-122.822;2023-04-30T09:27:36;3.90;;;1.27;;
6374;SDS011;35400;45.472;-122.822;2023-04-30T09:30:02;3.33;;;1.20;;
6374;SDS011;35400;45.472;-122.822;2023-04-30T09:32:30;1.83;;;0.90;;
6374;SDS011;35400;45.472;-122.822;2023-04-30T09:34:57;1.43;;;0.83;;
6374;SDS011;35400;45.472;-122.822;2023-04-30T09:37:45;1.80;;;0.80;;
6374;SDS011;35400;45.472;-122.822;2023-04-30T09:40:11;2.23;;;0.90;;
6374;SDS011;35400;45.472;-122.822;2023-04-30T09:42:38;1.47;;;0.90;;
6374;SDS011;35400;45.472;-122.822;2023-04-30T09:45:05;1.23;;;1.13;;
6374;SDS011;35400;45.472;-122.822;2023-04-30T09:47:32;1.53;;;1.07;;
6374;SDS011;35400;45.472;-122.822;2023-04-30T09:50:00;1.33;;;0.80;;
6374;SDS011;35400;45.472;-122.822;2023-04-30T09:52:28;1.77;;;0.80;;
6374;SDS011;35400;45.472;-122.822;2023-04-30T09:54:56;2.00;;;0.87;;
6374;SDS011;35400;45.472;-122.822;2023-04-30T09:57:23;1.93;;;0.83;;
6374;SDS011;35400;45.472;-122.822;2023-04-30T09:59:52;3.37;;;1.00;;
6374;SDS011;35400;45.472;-122.822;2023-04-30T10:02:19;1.83;;;0.90;;
6374;SDS011;35400;45.472;-122.822;2023-04-30T10:04:48;3.97;;;1.10;;
6374;SDS011;35400;45.472;-122.822;2023-04-30T10:07:20;1.87;;;0.80;;
6374;SDS011;35400;45.472;-122.822;2023-04-30T10:10:07;1.10;;;1.00;;
6374;SDS011;35400;45.472;-122.822;2023-04-30T10:15:34;1.07;;;0.90;;
6374;SDS011;35400;45.472;-122.822;2023-04-30T10:18:10;1.13;;;0.70;;
6374;SDS011;35400;45.472;-122.822;2023-04-30T10:20:53;2.00;;;1.17;;
6374;SDS011;35400;45.472;-122.822;2023-04-30T10:23:21;1.93;;;0.80;;
6374;SDS011;35400;45.472;-122.822;2023-04-30T10:25:49;0.97;;;0.90;;
6374;SDS011;35400;45.472;-122.822;2023-04-30T10:28:16;1.07;;;1.00;;
6374;SDS011;35400;45.472;-122.822;2023-04-30T10:30:44;1.20;;;0.80;;
6374;SDS011;35400;45.472;-122.822;2023-04-30T10:36:04;1.30;;;0.60;;
6374;SDS011;35400;45.472;-122.822;2023-04-30T10:38:35;1.33;;;0.90;;
6374;SDS011;35400;45.472;-122.822;2023-04-30T10:41:05;1.40;;;0.80;;
6374;SDS011;35400;45.472;-122.822;2023-04-30T10:43:34;2.17;;;0.83;;
6374;SDS011;35400;45.472;-122.822;2023-04-30T10:46:01;1.87;;;0.77;;
6374;SDS011;35400;45.472;-122.822;2023-04-30T10:48:29;1.53;;;1.00;;
6374;SDS011;35400;45.472;-122.822;2023-04-30T10:51:00;1.53;;;0.90;;
6374;SDS011;35400;45.472;-122.822;2023-04-30T10:53:31;2.03;;;1.03;;
6374;SDS011;35400;45.472;-122.822;2023-04-30T10:56:02;1.00;;;0.90;;
6374;SDS011;35400;45.472;-122.822;2023-04-30T10:58:34;4.07;;;1.17;;
6374;SDS011;35400;45.472;-122.822;2023-04-30T11:01:12;3.17;;;1.03;;
6374;SDS011;35400;45.472;-122.822;2023-04-30T11:03:42;1.53;;;0.73;;
6374;SDS011;35400;45.472;-122.822;2023-04-30T11:12:14;2.00;;;0.83;;
6374;SDS011;35400;45.472;-122.822;2023-04-30T11:14:44;1.40;;;1.07;;
6374;SDS011;35400;45.472;-122.822;2023-04-30T11:17:12;1.73;;;0.70;;
6374;SDS011;35400;45.472;-122.822;2023-04-30T11:19:49;1.77;;;0.80;;
6374;SDS011;35400;45.472;-122.822;2023-04-30T11:22:18;1.80;;;0.80;;
6374;SDS011;35400;45.472;-122.822;2023-04-30T11:24:50;1.63;;;1.10;;
6374;SDS011;35400;45.472;-122.822;2023-04-30T11:27:38;1.27;;;0.70;;
6374;SDS011;35400;45.472;-122.822;2023-04-30T11:30:10;4.23;;;1.00;;
6374;SDS011;35400;45.472;-122.822;2023-04-30T11:32:40;1.73;;;0.90;;
6374;SDS011;35400;45.472;-122.822;2023-04-30T11:35:12;2.73;;;1.10;;
6374;SDS011;35400;45.472;-122.822;2023-04-30T11:37:43;3.07;;;1.20;;
6374;SDS011;35400;45.472;-122.822;2023-04-30T11:40:10;1.63;;;1.27;;
6374;SDS011;35400;45.472;-122.822;2023-04-30T11:42:39;3.10;;;1.57;;
6374;SDS011;35400;45.472;-122.822;2023-04-30T11:45:09;2.43;;;1.07;;
6374;SDS011;35400;45.472;-122.822;2023-04-30T11:47:38;2.30;;;1.07;;
6374;SDS011;35400;45.472;-122.822;2023-04-30T11:50:14;1.20;;;1.10;;
6374;SDS011;35400;45.472;-122.822;2023-04-30T11:52:43;2.43;;;1.20;;
6374;SDS011;35400;45.472;-122.822;2023-04-30T11:55:16;3.23;;;1.40;;
6374;SDS011;35400;45.472;-122.822;2023-04-30T11:57:45;2.03;;;1.43;;
6374;SDS011;35400;45.472;-122.822;2023-04-30T12:00:18;1.53;;;1.10;;
6374;SDS011;35400;45.472;-122.822;2023-04-30T12:02:47;1.83;;;1.20;;
6374;SDS011;35400;45.472;-122.822;2023-04-30T12:05:15;3.43;;;1.40;;
6374;SDS011;35400;45.472;-122.822;2023-04-30T12:07:50;2.03;;;1.30;;
6374;SDS011;35400;45.472;-122.822;2023-04-30T12:10:22;3.57;;;2.60;;
6374;SDS011;35400;45.472;-122.822;2023-04-30T12:12:50;2.73;;;1.20;;
6374;SDS011;35400;45.472;-122.822;2023-04-30T12:15:20;1.40;;;1.27;;
6374;SDS011;35400;45.472;-122.822;2023-04-30T12:17:51;2.73;;;1.23;;
6374;SDS011;35400;45.472;-122.822;2023-04-30T12:20:20;1.20;;;1.10;;
6374;SDS011;35400;45.472;-122.822;2023-04-30T12:22:48;1.00;;;1.00;;
6374;SDS011;35400;45.472;-122.822;2023-04-30T12:25:16;1.40;;;1.30;;
6374;SDS011;35400;45.472;-122.822;2023-04-30T12:27:44;2.67;;;1.50;;
6374;SDS011;35400;45.472;-122.822;2023-04-30T12:30:13;2.50;;;1.20;;
6374;SDS011;35400;45.472;-122.822;2023-04-30T12:32:41;4.23;;;1.43;;
6374;SDS011;35400;45.472;-122.822;2023-04-30T12:35:13;3.13;;;1.57;;
6374;SDS011;35400;45.472;-122.822;2023-04-30T12:37:42;3.13;;;1.50;;
6374;SDS011;35400;45.472;-122.822;2023-04-30T12:40:10;1.40;;;1.10;;
6374;SDS011;35400;45.472;-122.822;2023-04-30T12:42:38;1.27;;;1.10;;
6374;SDS011;35400;45.472;-122.822;2023-04-30T12:45:06;2.67;;;1.27;;
6374;SDS011;35400;45.472;-122.822;2023-04-30T12:47:40;2.67;;;1.60;;
6374;SDS011;35400;45.472;-122.822;2023-04-30T12:50:08;1.80;;;1.37;;
6374;SDS011;35400;45.472;-122.822;2023-04-30T12:52:37;2.70;;;1.80;;
6374;SDS011;35400;45.472;-122.822;2023-04-30T12:55:14;2.97;;;1.60;;
6374;SDS011;35400;45.472;-122.822;2023-04-30T12:58:01;1.67;;;1.30;;
6374;SDS011;35400;45.472;-122.822;2023-04-30T13:00:44;2.87;;;1.40;;
6374;SDS011;35400;45.472;-122.822;2023-04-30T13:03:14;1.53;;;1.13;;
6374;SDS011;35400;45.472;-122.822;2023-04-30T13:05:44;1.73;;;1.30;;
6374;SDS011;35400;45.472;-122.822;2023-04-30T13:08:13;2.07;;;1.53;;
6374;SDS011;35400;45.472;-122.822;2023-04-30T13:10:40;4.27;;;1.67;;
6374;SDS011;35400;45.472;-122.822;2023-04-30T13:13:07;1.90;;;1.30;;
6374;SDS011;35400;45.472;-122.822;2023-04-30T13:15:35;3.40;;;1.30;;
6374;SDS011;35400;45.472;-122.822;2023-04-30T13:18:02;2.17;;;1.40;;
6374;SDS011;35400;45.472;-122.822;2023-04-30T13:20:29;4.30;;;1.60;;
6374;SDS011;35400;45.472;-122.822;2023-04-30T13:22:56;1.87;;;1.30;;
6374;SDS011;35400;45.472;-122.822;2023-04-30T13:25:23;3.43;;;1.30;;
6374;SDS011;35400;45.472;-122.822;2023-04-30T13:27:50;1.73;;;1.20;;
6374;SDS011;35400;45.472;-122.822;2023-04-30T13:30:17;2.23;;;1.30;;
6374;SDS011;35400;45.472;-122.822;2023-04-30T13:32:44;1.20;;;1.10;;
6374;SDS011;35400;45.472;-122.822;2023-04-30T13:35:11;1.40;;;1.30;;
6374;SDS011;35400;45.472;-122.822;2023-04-30T13:37:38;1.33;;;1.20;;
6374;SDS011;35400;45.472;-122.822;2023-04-30T13:40:06;3.63;;;1.23;;
6374;SDS011;35400;45.472;-122.822;2023-04-30T13:42:36;2.67;;;1.10;;
6374;SDS011;35400;45.472;-122.822;2023-04-30T13:45:06;1.17;;;0.80;;
6374;SDS011;35400;45.472;-122.822;2023-04-30T13:47:34;2.70;;;1.33;;
6374;SDS011;35400;45.472;-122.822;2023-04-30T13:50:02;1.60;;;1.07;;
6374;SDS011;35400;45.472;-122.822;2023-04-30T13:52:29;4.77;;;1.30;;
6374;SDS011;35400;45.472;-122.822;2023-04-30T13:54:56;1.80;;;1.50;;
6374;SDS011;35400;45.472;-122.822;2023-04-30T13:57:23;1.87;;;1.00;;
6374;SDS011;35400;45.472;-122.822;2023-04-30T13:59:50;1.30;;;1.10;;
6374;SDS011;35400;45.472;-122.822;2023-04-30T14:02:17;1.77;;;1.07;;
6374;SDS011;35400;45.472;-122.822;2023-04-30T14:04:44;2.17;;;1.13;;
6374;SDS011;35400;45.472;-122.822;2023-04-30T14:07:11;2.97;;;1.37;;
6374;SDS011;35400;45.472;-122.822;2023-04-30T14:09:37;1.93;;;1.10;;
6374;SDS011;35400;45.472;-122.822;2023-04-30T14:12:04;1.20;;;1.00;;
6374;SDS011;35400;45.472;-122.822;2023-04-30T14:14:31;3.50;;;1.30;;
6374;SDS011;35400;45.472;-122.822;2023-04-30T14:16:58;2.60;;;1.40;;
6374;SDS011;35400;45.472;-122.822;2023-04-30T14:19:26;2.50;;;1.60;;
6374;SDS011;35400;45.472;-122.822;2023-04-30T14:21:53;2.13;;;1.40;;
6374;SDS011;35400;45.472;-122.822;2023-04-30T14:24:20;1.73;;;1.20;;
6374;SDS011;35400;45.472;-122.822;2023-04-30T14:26:47;1.67;;;1.43;;
6374;SDS011;35400;45.472;-122.822;2023-04-30T14:29:14;2.27;;;1.57;;
6374;SDS011;35400;45.472;-122.822;2023-04-30T14:31:41;1.70;;;1.00;;
6374;SDS011;35400;45.472;-122.822;2023-04-30T14:34:07;2.33;;;1.20;;
6374;SDS011;35400;45.472;-122.822;2023-04-30T14:36:35;4.60;;;1.57;;
6374;SDS011;35400;45.472;-122.822;2023-04-30T14:39:02;1.57;;;1.30;;
6374;SDS011;35400;45.472;-122.822;2023-04-30T14:41:35;1.80;;;1.27;;
6374;SDS011;35400;45.472;-122.822;2023-04-30T14:44:02;1.60;;;1.40;;
6374;SDS011;35400;45.472;-122.822;2023-04-30T14:46:30;5.93;;;1.30;;
6374;SDS011;35400;45.472;-122.822;2023-04-30T14:48:58;1.87;;;1.33;;
6374;SDS011;35400;45.472;-122.822;2023-04-30T14:51:25;3.80;;;1.50;;
6374;SDS011;35400;45.472;-122.822;2023-04-30T14:53:53;2.50;;;1.50;;
6374;SDS011;35400;45.472;-122.822;2023-04-30T14:56:20;3.17;;;1.40;;